createdAt,value
2017-07-01T00:00:54.657Z,23.40
2017-07-01T00:03:21.293Z,24.63
2017-07-01T00:05:47.921Z,23.20
2017-07-01T00:08:14.567Z,22.70
2017-07-01T00:10:41.196Z,22.83
2017-07-01T00:13:07.820Z,24.07
2017-07-01T00:15:34.476Z,23.67
2017-07-01T00:18:01.084Z,23.30
2017-07-01T00:20:27.729Z,23.60
2017-07-01T00:22:54.369Z,21.40
2017-07-01T00:25:21.009Z,21.00
2017-07-01T00:27:47.655Z,21.53
2017-07-01T00:30:14.283Z,22.10
2017-07-01T00:32:40.927Z,22.63
2017-07-01T00:35:07.556Z,23.57
2017-07-01T00:37:34.196Z,24.53
2017-07-01T00:40:00.840Z,24.50
2017-07-01T00:42:27.462Z,24.10
2017-07-01T00:44:54.101Z,22.40
2017-07-01T00:47:20.741Z,21.30
2017-07-01T00:49:47.397Z,24.20
2017-07-01T00:52:14.051Z,23.93
2017-07-01T00:54:40.694Z,22.83
2017-07-01T00:57:07.348Z,21.90
2017-07-01T00:59:34.003Z,22.90
2017-07-01T01:02:00.639Z,22.30
2017-07-01T01:04:27.279Z,24.00
2017-07-01T01:06:53.940Z,24.77
2017-07-01T01:09:20.564Z,26.33
2017-07-01T01:11:47.199Z,23.17
2017-07-01T01:14:13.819Z,24.60
2017-07-01T01:16:40.465Z,21.03
2017-07-01T01:19:07.115Z,22.90
2017-07-01T01:21:33.747Z,21.50
2017-07-01T01:24:00.421Z,26.20
2017-07-01T01:26:27.048Z,26.70
2017-07-01T01:28:53.673Z,26.70
2017-07-01T01:31:20.339Z,23.53
2017-07-01T01:33:46.988Z,23.00
2017-07-01T01:36:14.224Z,23.73
2017-07-01T01:38:40.863Z,27.50
2017-07-01T01:41:07.512Z,26.47
2017-07-01T01:43:34.134Z,26.00
2017-07-01T01:46:00.787Z,27.40
2017-07-01T01:48:27.433Z,27.80
2017-07-01T01:50:54.215Z,28.10
2017-07-01T01:53:20.940Z,30.00
2017-07-01T01:55:47.615Z,30.20
2017-07-01T01:58:14.280Z,30.73
2017-07-01T02:00:41.046Z,30.07
2017-07-01T02:03:07.827Z,29.80
2017-07-01T02:05:34.450Z,29.53
2017-07-01T02:08:10.286Z,30.20
2017-07-01T02:10:37.015Z,30.00
2017-07-01T02:13:03.736Z,31.27
2017-07-01T02:15:30.359Z,31.30
2017-07-01T02:18:01.022Z,30.47
2017-07-01T02:20:33.551Z,33.40
2017-07-01T02:23:00.190Z,34.67
2017-07-01T02:25:27.721Z,35.37
2017-07-01T02:27:54.903Z,33.87
2017-07-01T02:30:21.554Z,38.27
2017-07-01T02:32:49.074Z,36.70
2017-07-01T02:35:15.726Z,46.67
2017-07-01T02:37:42.405Z,42.00
2017-07-01T02:40:09.047Z,43.70
2017-07-01T02:42:35.700Z,46.37
2017-07-01T02:45:02.403Z,47.07
2017-07-01T02:47:45.695Z,44.77
2017-07-01T02:50:12.348Z,45.03
2017-07-01T02:52:44.526Z,50.43
2017-07-01T02:55:17.083Z,49.67
2017-07-01T02:57:43.883Z,47.70
2017-07-01T03:00:10.612Z,50.93
2017-07-01T03:02:37.268Z,49.03
2017-07-01T03:05:03.904Z,43.83
2017-07-01T03:07:30.554Z,46.80
2017-07-01T03:09:57.210Z,47.27
2017-07-01T03:12:23.843Z,45.20
2017-07-01T03:14:50.628Z,48.63
2017-07-01T03:17:17.351Z,57.13
2017-07-01T03:19:44.008Z,45.73
2017-07-01T03:22:10.679Z,44.80
2017-07-01T03:24:47.220Z,49.53
2017-07-01T03:27:13.879Z,50.93
2017-07-01T03:29:40.500Z,47.83
2017-07-01T03:32:07.306Z,49.47
2017-07-01T03:34:33.946Z,49.73
2017-07-01T03:37:04.626Z,53.00
2017-07-01T03:39:37.268Z,52.43
2017-07-01T03:42:19.719Z,51.20
2017-07-01T03:44:50.999Z,55.27
2017-07-01T03:47:17.611Z,49.17
2017-07-01T03:49:45.018Z,50.20
2017-07-01T03:52:11.652Z,47.33
2017-07-01T03:54:41.166Z,50.93
2017-07-01T03:57:07.824Z,50.77
2017-07-01T03:59:34.454Z,51.60
2017-07-01T04:02:01.098Z,56.33
2017-07-01T04:04:27.738Z,53.07
2017-07-01T04:06:54.376Z,54.03
2017-07-01T04:09:21.015Z,49.43
2017-07-01T04:11:51.470Z,54.10
2017-07-01T04:14:18.119Z,54.40
2017-07-01T04:16:44.752Z,53.77
2017-07-01T04:19:11.377Z,52.17
2017-07-01T04:21:38.027Z,55.83
2017-07-01T04:24:04.671Z,52.93
2017-07-01T04:26:31.327Z,53.83
2017-07-01T04:28:57.951Z,51.33
2017-07-01T04:31:24.594Z,52.50
2017-07-01T04:33:51.244Z,54.17
2017-07-01T04:36:17.872Z,51.00
2017-07-01T04:38:54.458Z,56.50
2017-07-01T04:41:25.843Z,48.43
2017-07-01T04:43:58.463Z,55.07
2017-07-01T04:46:25.087Z,57.13
2017-07-01T04:48:57.641Z,55.10
2017-07-01T04:51:42.040Z,52.70
2017-07-01T04:54:15.327Z,60.70
2017-07-01T04:56:41.973Z,61.17
2017-07-01T04:59:08.597Z,64.20
2017-07-01T05:01:41.946Z,66.97
2017-07-01T05:04:15.460Z,63.07
2017-07-01T05:06:44.997Z,73.60
2017-07-01T05:09:11.651Z,66.43
2017-07-01T05:11:38.296Z,67.47
2017-07-01T05:14:09.463Z,72.97
2017-07-01T05:16:42.858Z,65.77
2017-07-01T05:19:11.934Z,64.87
2017-07-01T05:21:41.072Z,61.77
2017-07-01T05:24:09.960Z,58.10
2017-07-01T05:26:39.490Z,67.77
2017-07-01T05:29:07.710Z,64.40
2017-07-01T05:31:35.784Z,57.37
2017-07-01T05:34:20.944Z,61.80
2017-07-01T05:36:49.944Z,57.87
2017-07-01T05:39:21.298Z,66.17
2017-07-01T05:41:57.530Z,50.70
2017-07-01T05:44:31.571Z,50.87
2017-07-01T05:47:02.292Z,52.33
2017-07-01T05:49:30.847Z,46.83
2017-07-01T05:51:59.569Z,42.57
2017-07-01T05:54:30.458Z,46.43
2017-07-01T05:56:58.436Z,46.20
2017-07-01T05:59:31.994Z,44.77
2017-07-01T06:01:59.523Z,44.80
2017-07-01T06:04:30.607Z,42.50
2017-07-01T06:06:58.982Z,36.87
2017-07-01T06:09:48.303Z,37.83
2017-07-01T06:12:22.071Z,35.90
2017-07-01T06:14:50.902Z,31.17
2017-07-01T06:17:37.226Z,23.70
2017-07-01T06:20:04.790Z,24.40
2017-07-01T06:22:50.959Z,24.10
2017-07-01T06:25:19.526Z,20.70
2017-07-01T06:27:55.246Z,19.33
2017-07-01T06:30:27.248Z,14.60
2017-07-01T06:33:05.259Z,14.50
2017-07-01T06:35:33.704Z,14.80
2017-07-01T06:38:16.740Z,15.87
2017-07-01T06:40:55.343Z,15.67
2017-07-01T06:43:22.810Z,15.70
2017-07-01T06:45:50.414Z,13.70
2017-07-01T06:48:19.211Z,10.97
2017-07-01T06:50:47.359Z,10.93
2017-07-01T06:53:16.086Z,12.57
2017-07-01T06:55:44.420Z,12.47
2017-07-01T06:58:12.921Z,12.77
2017-07-01T07:00:44.286Z,13.50
2017-07-01T07:03:13.035Z,11.40
2017-07-01T07:05:41.964Z,12.77
2017-07-01T07:08:11.324Z,12.00
2017-07-01T07:10:41.463Z,10.60
2017-07-01T07:13:10.317Z,11.10
2017-07-01T07:15:39.214Z,10.67
2017-07-01T07:18:07.657Z,11.80
2017-07-01T07:20:37.076Z,9.30
2017-07-01T07:23:04.653Z,10.60
2017-07-01T07:25:33.570Z,10.43
2017-07-01T07:28:02.042Z,10.30
2017-07-01T07:30:29.178Z,9.77
2017-07-01T07:32:56.330Z,9.23
2017-07-01T07:35:23.008Z,10.17
2017-07-01T07:37:51.503Z,9.70
2017-07-01T07:40:18.496Z,9.40
2017-07-01T07:42:45.528Z,9.07
2017-07-01T07:45:12.151Z,9.67
2017-07-01T07:47:38.819Z,9.30
2017-07-01T07:50:05.443Z,8.67
2017-07-01T07:52:34.253Z,10.70
2017-07-01T07:55:02.211Z,9.57
2017-07-01T07:57:29.153Z,6.57
2017-07-01T07:59:55.773Z,6.97
2017-07-01T08:02:22.418Z,8.17
2017-07-01T08:04:49.056Z,6.37
2017-07-01T08:07:18.352Z,5.87
2017-07-01T08:09:46.831Z,5.90
2017-07-01T08:12:13.456Z,6.30
2017-07-01T08:14:41.975Z,5.10
2017-07-01T08:17:10.827Z,4.47
2017-07-01T08:19:39.575Z,4.53
2017-07-01T08:22:08.008Z,5.03
2017-07-01T08:24:37.139Z,3.60
2017-07-01T08:27:06.032Z,4.60
2017-07-01T08:29:32.960Z,3.20
2017-07-01T08:32:01.708Z,4.00
2017-07-01T08:34:28.978Z,4.23
2017-07-01T08:36:57.286Z,4.60
2017-07-01T08:39:25.575Z,3.53
2017-07-01T08:41:53.938Z,4.83
2017-07-01T08:44:21.816Z,4.60
2017-07-01T08:46:49.310Z,4.50
2017-07-01T08:49:16.808Z,4.30
2017-07-01T08:51:45.221Z,6.10
2017-07-01T08:54:12.572Z,5.80
2017-07-01T08:56:43.460Z,6.00
2017-07-01T08:59:11.889Z,6.43
2017-07-01T09:01:39.294Z,8.43
2017-07-01T09:04:07.740Z,8.13
2017-07-01T09:06:35.064Z,7.77
2017-07-01T09:09:03.245Z,8.93
2017-07-01T09:11:31.628Z,7.80
2017-07-01T09:14:00.261Z,8.20
2017-07-01T09:16:29.780Z,8.07
2017-07-01T09:18:58.428Z,8.60
2017-07-01T09:21:26.049Z,6.97
2017-07-01T09:23:53.761Z,7.20
2017-07-01T09:26:21.727Z,8.50
2017-07-01T09:28:48.817Z,8.37
2017-07-01T09:31:18.035Z,7.93
2017-07-01T09:33:46.274Z,7.40
2017-07-01T09:36:13.768Z,9.20
2017-07-01T09:38:42.074Z,7.00
2017-07-01T09:41:10.159Z,6.73
2017-07-01T09:43:36.780Z,7.43
2017-07-01T09:46:04.842Z,6.30
2017-07-01T09:48:33.349Z,6.63
2017-07-01T09:51:00.337Z,6.00
2017-07-01T09:53:28.054Z,6.27
2017-07-01T09:55:54.739Z,6.70
2017-07-01T09:58:21.371Z,5.93
2017-07-01T10:00:48.089Z,5.43
2017-07-01T10:03:14.712Z,6.13
2017-07-01T10:05:41.391Z,7.00
2017-07-01T10:08:09.951Z,6.70
2017-07-01T10:10:39.915Z,4.87
2017-07-01T10:13:07.965Z,4.07
2017-07-01T10:15:37.378Z,5.00
2017-07-01T10:18:05.468Z,4.60
2017-07-01T10:20:33.077Z,5.77
2017-07-01T10:23:01.580Z,6.20
2017-07-01T10:25:28.233Z,5.53
2017-07-01T10:27:54.864Z,6.70
2017-07-01T10:30:21.509Z,6.67
2017-07-01T10:32:48.123Z,6.20
2017-07-01T10:35:14.776Z,7.03
2017-07-01T10:37:42.073Z,7.20
2017-07-01T10:40:09.474Z,7.53
2017-07-01T10:42:38.710Z,8.43
2017-07-01T10:45:07.418Z,17.90
2017-07-01T10:47:36.160Z,17.10
2017-07-01T10:50:05.135Z,17.30
2017-07-01T10:52:34.920Z,16.03
2017-07-01T10:55:03.260Z,18.50
2017-07-01T11:00:03.544Z,10.07
2017-07-01T11:02:31.916Z,9.93
2017-07-01T11:04:59.920Z,4.20
2017-07-01T11:07:30.628Z,5.30
2017-07-01T11:09:58.706Z,6.13
2017-07-01T11:12:26.240Z,7.50
2017-07-01T11:14:54.901Z,8.70
2017-07-01T11:17:23.249Z,6.30
2017-07-01T11:19:49.862Z,6.20
2017-07-01T11:22:19.259Z,7.70
2017-07-01T11:24:48.967Z,12.23
2017-07-01T11:27:19.494Z,11.40
2017-07-01T11:29:46.133Z,13.10
2017-07-01T11:32:15.451Z,15.53
2017-07-01T11:34:44.220Z,15.80
2017-07-01T11:37:12.706Z,15.00
2017-07-01T11:39:39.995Z,14.47
2017-07-01T11:42:06.620Z,23.40
2017-07-01T11:44:35.903Z,25.60
2017-07-01T11:47:04.894Z,26.37
2017-07-01T11:49:33.091Z,21.40
2017-07-01T11:52:02.008Z,20.53
2017-07-01T11:54:31.421Z,14.87
2017-07-01T11:57:00.065Z,13.13
2017-07-01T11:59:28.237Z,11.60
2017-07-01T12:01:57.940Z,12.87
2017-07-01T12:04:29.568Z,14.37
2017-07-01T12:06:57.733Z,12.93
2017-07-01T12:09:26.590Z,11.30
2017-07-01T12:11:53.950Z,16.47
2017-07-01T12:14:22.907Z,17.80
2017-07-01T12:16:50.999Z,20.47
2017-07-01T12:19:19.375Z,11.33
2017-07-01T12:21:47.954Z,7.80
2017-07-01T12:24:16.866Z,6.77
2017-07-01T12:26:44.794Z,8.30
2017-07-01T12:29:14.664Z,8.67
2017-07-01T12:31:43.603Z,8.40
2017-07-01T12:34:11.355Z,7.60
2017-07-01T12:36:39.088Z,7.47
2017-07-01T12:39:09.380Z,8.83
2017-07-01T12:41:38.855Z,8.80
2017-07-01T12:44:08.411Z,8.50
2017-07-01T12:46:37.400Z,8.03
2017-07-01T12:49:06.643Z,9.77
2017-07-01T12:51:35.575Z,9.80
2017-07-01T12:54:04.836Z,9.07
2017-07-01T12:56:33.142Z,7.70
2017-07-01T12:59:05.222Z,6.10
2017-07-01T13:01:33.840Z,8.43
2017-07-01T13:04:02.318Z,6.27
2017-07-01T13:06:31.382Z,6.60
2017-07-01T13:08:59.449Z,7.30
2017-07-01T13:11:29.088Z,11.83
2017-07-01T13:13:59.738Z,12.03
2017-07-01T13:16:28.479Z,11.67
2017-07-01T13:18:56.879Z,15.67
2017-07-01T13:21:26.184Z,16.87
2017-07-01T13:23:54.691Z,17.00
2017-07-01T13:26:23.033Z,9.60
2017-07-01T13:28:52.039Z,9.70
2017-07-01T13:31:22.507Z,8.90
2017-07-01T13:33:51.756Z,10.27
2017-07-01T13:36:21.329Z,7.90
2017-07-01T13:38:50.550Z,8.73
2017-07-01T13:41:19.134Z,10.20
2017-07-01T13:43:47.148Z,10.03
2017-07-01T13:46:15.217Z,12.17
2017-07-01T13:48:44.769Z,15.17
2017-07-01T13:51:11.754Z,16.97
2017-07-01T13:53:40.715Z,14.00
2017-07-01T13:56:10.527Z,10.60
2017-07-01T13:58:39.203Z,10.90
2017-07-01T14:01:07.978Z,11.90
2017-07-01T14:03:34.609Z,9.90
2017-07-01T14:06:01.262Z,12.17
2017-07-01T14:08:28.775Z,11.70
2017-07-01T14:10:58.549Z,10.80
2017-07-01T14:13:26.843Z,13.33
2017-07-01T14:15:53.527Z,16.63
2017-07-01T14:18:22.366Z,16.13
2017-07-01T14:20:49.012Z,17.43
2017-07-01T14:23:15.647Z,19.57
2017-07-01T14:25:45.746Z,23.37
2017-07-01T14:28:13.295Z,24.07
2017-07-01T14:30:41.565Z,21.80
2017-07-01T14:33:08.221Z,20.03
2017-07-01T14:35:34.839Z,24.63
2017-07-01T14:38:01.507Z,17.57
2017-07-01T14:40:28.164Z,10.87
2017-07-01T14:42:54.816Z,11.40
2017-07-01T14:45:21.483Z,10.80
2017-07-01T14:47:48.136Z,7.50
2017-07-01T14:50:14.779Z,8.10
2017-07-01T14:52:41.427Z,7.90
2017-07-01T14:55:08.068Z,8.40
2017-07-01T14:57:36.587Z,7.60
2017-07-01T15:00:03.202Z,6.80
2017-07-01T15:02:29.998Z,7.50
2017-07-01T15:04:57.342Z,7.80
2017-07-01T15:07:24.057Z,7.30
2017-07-01T15:09:50.728Z,8.40
2017-07-01T15:12:17.336Z,8.33
2017-07-01T15:14:44.873Z,9.20
2017-07-01T15:17:11.518Z,8.27
2017-07-01T15:19:39.646Z,8.73
2017-07-01T15:22:06.903Z,8.03
2017-07-01T15:24:33.519Z,8.40
2017-07-01T15:27:01.432Z,8.33
2017-07-01T15:29:30.381Z,7.60
2017-07-01T15:31:57.046Z,9.13
2017-07-01T15:34:23.700Z,7.17
2017-07-01T15:36:51.189Z,7.60
2017-07-01T15:39:20.363Z,8.40
2017-07-01T15:41:48.330Z,7.50
2017-07-01T15:44:14.952Z,7.37
2017-07-01T15:46:41.626Z,6.83
2017-07-01T15:49:08.308Z,8.30
2017-07-01T15:51:34.943Z,9.87
2017-07-01T15:54:01.601Z,9.17
2017-07-01T15:56:28.221Z,8.33
2017-07-01T15:58:54.882Z,7.80
2017-07-01T16:01:27.596Z,9.30
2017-07-01T16:03:54.842Z,8.63
2017-07-01T16:06:21.464Z,8.53
2017-07-01T16:08:48.115Z,8.33
2017-07-01T16:11:14.732Z,8.67
2017-07-01T16:13:41.380Z,6.47
2017-07-01T16:16:08.016Z,7.40
2017-07-01T16:18:34.641Z,7.20
2017-07-01T16:21:01.297Z,8.10
2017-07-01T16:23:27.917Z,7.97
2017-07-01T16:25:54.576Z,8.17
2017-07-01T16:28:21.196Z,8.90
2017-07-01T16:30:47.839Z,10.23
2017-07-01T16:33:14.487Z,9.77
2017-07-01T16:35:41.151Z,9.77
2017-07-01T16:38:07.802Z,12.07
2017-07-01T16:40:34.456Z,12.77
2017-07-01T16:43:01.082Z,11.70
2017-07-01T16:45:27.765Z,11.93
2017-07-01T16:47:54.434Z,11.90
2017-07-01T16:50:21.176Z,12.00
2017-07-01T16:52:47.821Z,10.43
2017-07-01T16:55:14.470Z,10.63
2017-07-01T16:57:43.941Z,12.03
2017-07-01T17:00:10.594Z,11.80
2017-07-01T17:02:37.247Z,13.40
2017-07-01T17:05:03.909Z,12.90
2017-07-01T17:07:30.552Z,12.20
2017-07-01T17:09:58.130Z,12.60
2017-07-01T17:12:25.949Z,12.37
2017-07-01T17:14:54.821Z,12.13
2017-07-01T17:17:24.198Z,11.50
2017-07-01T17:19:54.171Z,12.40
2017-07-01T17:22:20.807Z,10.43
2017-07-01T17:24:47.459Z,11.27
2017-07-01T17:27:15.128Z,10.77
2017-07-01T17:29:42.287Z,11.43
2017-07-01T17:32:08.922Z,11.37
2017-07-01T17:34:35.600Z,12.20
2017-07-01T17:37:02.267Z,11.80
2017-07-01T17:39:28.915Z,12.53
2017-07-01T17:41:55.577Z,12.33
2017-07-01T17:44:22.196Z,12.90
2017-07-01T17:46:48.838Z,12.53
2017-07-01T17:49:15.492Z,12.60
2017-07-01T17:51:44.058Z,11.80
2017-07-01T17:54:10.946Z,12.30
2017-07-01T17:56:37.598Z,12.37
2017-07-01T17:59:04.254Z,11.23
2017-07-01T18:01:30.903Z,13.30
2017-07-01T18:03:57.548Z,11.80
2017-07-01T18:06:27.156Z,12.90
2017-07-01T18:08:53.871Z,11.10
2017-07-01T18:11:24.312Z,12.40
2017-07-01T18:13:51.467Z,12.00
2017-07-01T18:16:21.151Z,9.27
2017-07-01T18:18:48.638Z,10.73
2017-07-01T18:21:16.742Z,11.30
2017-07-01T18:23:45.564Z,12.10
2017-07-01T18:26:14.276Z,9.53
2017-07-01T18:28:41.688Z,8.03
2017-07-01T18:31:09.257Z,9.33
2017-07-01T18:33:35.919Z,11.17
2017-07-01T18:36:05.725Z,14.67
2017-07-01T18:38:32.369Z,13.17
2017-07-01T18:41:01.276Z,13.37
2017-07-01T18:43:31.576Z,13.03
2017-07-01T18:46:01.263Z,11.30
2017-07-01T18:48:31.617Z,15.67
2017-07-01T18:51:00.512Z,12.33
2017-07-01T18:53:28.830Z,16.13
2017-07-01T18:55:57.056Z,15.60
2017-07-01T18:58:23.758Z,13.63
2017-07-01T19:00:54.567Z,17.40
2017-07-01T19:03:24.590Z,11.93
2017-07-01T19:05:55.562Z,11.20
2017-07-01T19:08:24.202Z,11.97
2017-07-01T19:10:52.887Z,12.13
2017-07-01T19:13:20.259Z,10.63
2017-07-01T19:15:51.878Z,12.07
2017-07-01T19:18:20.300Z,13.47
2017-07-01T19:20:51.848Z,15.87
2017-07-01T19:23:20.907Z,18.37
2017-07-01T19:25:52.132Z,19.90
2017-07-01T19:28:20.721Z,19.53
2017-07-01T19:30:48.099Z,22.03
2017-07-01T19:33:16.460Z,22.77
2017-07-01T19:35:44.678Z,24.27
2017-07-01T19:38:14.593Z,19.43
2017-07-01T19:40:42.466Z,22.87
2017-07-01T19:43:10.375Z,20.33
2017-07-01T19:45:37.155Z,23.17
2017-07-01T19:48:03.812Z,23.10
2017-07-01T19:50:30.448Z,21.87
2017-07-01T19:52:57.864Z,21.50
2017-07-01T19:55:25.174Z,22.00
2017-07-01T19:57:51.801Z,23.87
2017-07-01T20:00:23.833Z,23.60
2017-07-01T20:02:52.153Z,22.87
2017-07-01T20:05:21.289Z,22.37
2017-07-01T20:07:49.476Z,21.10
2017-07-01T20:10:19.124Z,23.10
2017-07-01T20:12:47.371Z,22.87
2017-07-01T20:15:16.042Z,26.83
2017-07-01T20:17:44.634Z,22.43
2017-07-01T20:20:13.318Z,25.67
2017-07-01T20:22:40.700Z,19.53
2017-07-01T20:25:09.572Z,23.47
2017-07-01T20:27:37.101Z,19.40
2017-07-01T20:30:05.489Z,16.60
2017-07-01T20:32:32.140Z,15.73
2017-07-01T20:34:58.773Z,12.50
2017-07-01T20:37:26.936Z,9.13
2017-07-01T20:39:58.711Z,10.80
2017-07-01T20:42:27.836Z,11.90
2017-07-01T20:44:58.691Z,9.33
2017-07-01T20:47:27.589Z,11.43
2017-07-01T20:49:55.754Z,14.17
2017-07-01T20:52:24.119Z,16.43
2017-07-01T20:54:52.914Z,17.53
2017-07-01T20:57:22.420Z,16.70
2017-07-01T20:59:50.472Z,14.70
2017-07-01T21:02:19.832Z,15.30
2017-07-01T21:04:48.849Z,11.00
2017-07-01T21:07:15.480Z,11.27
2017-07-01T21:09:44.382Z,12.07
2017-07-01T21:12:12.800Z,10.73
2017-07-01T21:14:40.979Z,11.13
2017-07-01T21:17:11.010Z,11.57
2017-07-01T21:19:38.001Z,14.27
2017-07-01T21:22:04.654Z,15.13
2017-07-01T21:24:34.027Z,12.37
2017-07-01T21:27:01.115Z,12.17
2017-07-01T21:29:29.037Z,13.03
2017-07-01T21:32:01.576Z,11.83
2017-07-01T21:34:32.194Z,13.27
2017-07-01T21:37:00.874Z,11.00
2017-07-01T21:39:32.496Z,10.87
2017-07-01T21:42:04.139Z,12.13
2017-07-01T21:44:32.887Z,10.20
2017-07-01T21:47:02.097Z,10.40
2017-07-01T21:49:30.898Z,11.00
2017-07-01T21:51:59.800Z,10.67
2017-07-01T21:54:28.025Z,9.60
2017-07-01T21:56:56.955Z,9.93
2017-07-01T21:59:24.976Z,10.10
2017-07-01T22:01:53.950Z,12.00
2017-07-01T22:04:20.602Z,10.27
2017-07-01T22:06:47.313Z,10.83
2017-07-01T22:09:13.950Z,9.00
2017-07-01T22:11:40.680Z,9.87
2017-07-01T22:14:08.471Z,9.80
2017-07-01T22:16:35.098Z,9.63
2017-07-01T22:19:01.737Z,12.00
2017-07-01T22:21:28.679Z,10.93
2017-07-01T22:23:55.332Z,11.57
2017-07-01T22:26:21.979Z,13.33
2017-07-01T22:28:49.333Z,14.20
2017-07-01T22:31:15.963Z,16.57
2017-07-01T22:33:42.578Z,16.13
2017-07-01T22:36:09.244Z,19.17
2017-07-01T22:38:36.751Z,16.47
2017-07-01T22:41:03.397Z,19.40
2017-07-01T22:43:30.042Z,18.23
2017-07-01T22:45:56.659Z,19.73
2017-07-01T22:48:24.110Z,18.90
2017-07-01T22:50:53.176Z,20.13
2017-07-01T22:53:19.842Z,20.47
2017-07-01T22:55:46.470Z,21.77
2017-07-01T22:58:13.085Z,21.10
2017-07-01T23:00:39.764Z,21.23
2017-07-01T23:03:06.406Z,19.53
2017-07-01T23:05:33.051Z,26.93
2017-07-01T23:07:59.690Z,19.57
2017-07-01T23:10:26.320Z,19.67
2017-07-01T23:12:52.973Z,20.97
2017-07-01T23:15:19.601Z,21.47
2017-07-01T23:17:46.251Z,21.23
2017-07-01T23:20:12.875Z,20.37
2017-07-01T23:22:39.521Z,23.13
2017-07-01T23:25:06.155Z,24.67
2017-07-01T23:27:32.805Z,22.70
2017-07-01T23:29:59.443Z,19.80
2017-07-01T23:32:26.959Z,22.27
2017-07-01T23:34:53.611Z,21.33
2017-07-01T23:37:20.263Z,25.23
2017-07-01T23:39:46.898Z,25.80
2017-07-01T23:42:13.544Z,24.57
2017-07-01T23:44:40.847Z,24.00
2017-07-01T23:47:07.732Z,23.13
2017-07-01T23:49:34.515Z,22.83
2017-07-01T23:52:04.235Z,24.70
2017-07-01T23:54:30.867Z,23.63
2017-07-01T23:56:58.131Z,21.83
2017-07-01T23:59:24.767Z,25.63
